sensor_id;sensor_type;location;lat;lon;timestamp;P1;durP1;ratioP1;P2;durP2;ratioP2
17214;SDS011;8723;51.502;6.918;2022-11-15T00:02:12;8.70;;;7.90;;
17214;SDS011;8723;51.502;6.918;2022-11-15T00:04:39;10.52;;;8.90;;
17214;SDS011;8723;51.502;6.918;2022-11-15T00:07:06;7.40;;;6.80;;
17214;SDS011;8723;51.502;6.918;2022-11-15T00:09:35;6.60;;;5.93;;
17214;SDS011;8723;51.502;6.918;2022-11-15T00:12:02;7.97;;;7.25;;
17214;SDS011;8723;51.502;6.918;2022-11-15T00:14:29;6.40;;;5.90;;
17214;SDS011;8723;51.502;6.918;2022-11-15T00:16:56;7.40;;;6.72;;
17214;SDS011;8723;51.502;6.918;2022-11-15T00:19:23;6.75;;;6.13;;
17214;SDS011;8723;51.502;6.918;2022-11-15T00:21:50;8.90;;;7.78;;
17214;SDS011;8723;51.502;6.918;2022-11-15T00:24:18;5.57;;;5.07;;
17214;SDS011;8723;51.502;6.918;2022-11-15T00:26:46;7.35;;;6.57;;
17214;SDS011;8723;51.502;6.918;2022-11-15T00:29:13;6.78;;;6.18;;
17214;SDS011;8723;51.502;6.918;2022-11-15T00:31:40;6.50;;;5.90;;
17214;SDS011;8723;51.502;6.918;2022-11-15T00:34:08;6.80;;;6.20;;
17214;SDS011;8723;51.502;6.918;2022-11-15T00:36:35;7.25;;;6.55;;
17214;SDS011;8723;51.502;6.918;2022-11-15T00:39:03;6.43;;;5.83;;
17214;SDS011;8723;51.502;6.918;2022-11-15T00:41:30;6.50;;;5.90;;
17214;SDS011;8723;51.502;6.918;2022-11-15T00:43:59;6.13;;;5.63;;
17214;SDS011;8723;51.502;6.918;2022-11-15T00:46:26;6.25;;;5.75;;
17214;SDS011;8723;51.502;6.918;2022-11-15T00:48:53;5.65;;;5.25;;
17214;SDS011;8723;51.502;6.918;2022-11-15T00:51:20;6.50;;;5.90;;
17214;SDS011;8723;51.502;6.918;2022-11-15T00:53:47;6.30;;;5.72;;
17214;SDS011;8723;51.502;6.918;2022-11-15T00:56:14;6.00;;;5.50;;
17214;SDS011;8723;51.502;6.918;2022-11-15T00:58:41;6.22;;;5.63;;
17214;SDS011;8723;51.502;6.918;2022-11-15T01:01:11;6.10;;;5.57;;
17214;SDS011;8723;51.502;6.918;2022-11-15T01:03:38;6.23;;;5.73;;
17214;SDS011;8723;51.502;6.918;2022-11-15T01:06:06;6.18;;;5.68;;
17214;SDS011;8723;51.502;6.918;2022-11-15T01:08:34;7.50;;;6.63;;
17214;SDS011;8723;51.502;6.918;2022-11-15T01:11:01;5.05;;;4.57;;
17214;SDS011;8723;51.502;6.918;2022-11-15T01:13:29;5.72;;;5.22;;
17214;SDS011;8723;51.502;6.918;2022-11-15T01:15:56;7.60;;;6.88;;
17214;SDS011;8723;51.502;6.918;2022-11-15T01:18:25;6.53;;;5.82;;
17214;SDS011;8723;51.502;6.918;2022-11-15T01:20:53;6.93;;;5.60;;
17214;SDS011;8723;51.502;6.918;2022-11-15T01:23:21;6.05;;;5.38;;
17214;SDS011;8723;51.502;6.918;2022-11-15T01:25:48;6.18;;;5.68;;
17214;SDS011;8723;51.502;6.918;2022-11-15T01:28:15;6.97;;;6.28;;
17214;SDS011;8723;51.502;6.918;2022-11-15T01:30:42;6.00;;;5.50;;
17214;SDS011;8723;51.502;6.918;2022-11-15T01:33:09;6.68;;;5.97;;
17214;SDS011;8723;51.502;6.918;2022-11-15T01:35:39;6.18;;;5.57;;
17214;SDS011;8723;51.502;6.918;2022-11-15T01:38:06;6.30;;;5.70;;
17214;SDS011;8723;51.502;6.918;2022-11-15T01:40:34;6.10;;;5.50;;
17214;SDS011;8723;51.502;6.918;2022-11-15T01:45:43;5.03;;;4.63;;
17214;SDS011;8723;51.502;6.918;2022-11-15T01:48:10;6.73;;;6.03;;
17214;SDS011;8723;51.502;6.918;2022-11-15T01:50:39;5.78;;;5.28;;
17214;SDS011;8723;51.502;6.918;2022-11-15T01:53:06;6.22;;;5.70;;
17214;SDS011;8723;51.502;6.918;2022-11-15T01:55:35;6.20;;;5.70;;
17214;SDS011;8723;51.502;6.918;2022-11-15T01:58:03;5.05;;;4.65;;
17214;SDS011;8723;51.502;6.918;2022-11-15T02:00:31;6.38;;;5.78;;
17214;SDS011;8723;51.502;6.918;2022-11-15T02:02:58;4.88;;;4.47;;
17214;SDS011;8723;51.502;6.918;2022-11-15T02:05:25;5.60;;;4.93;;
17214;SDS011;8723;51.502;6.918;2022-11-15T02:07:54;5.50;;;5.00;;
17214;SDS011;8723;51.502;6.918;2022-11-15T02:10:21;5.03;;;4.63;;
17214;SDS011;8723;51.502;6.918;2022-11-15T02:12:49;5.55;;;5.05;;
17214;SDS011;8723;51.502;6.918;2022-11-15T02:15:16;5.68;;;5.18;;
17214;SDS011;8723;51.502;6.918;2022-11-15T02:17:50;5.03;;;4.60;;
17214;SDS011;8723;51.502;6.918;2022-11-15T02:25:55;5.00;;;4.60;;
17214;SDS011;8723;51.502;6.918;2022-11-15T02:28:29;4.95;;;4.55;;
17214;SDS011;8723;51.502;6.918;2022-11-15T02:31:03;4.65;;;4.25;;
17214;SDS011;8723;51.502;6.918;2022-11-15T02:33:34;5.95;;;5.13;;
17214;SDS011;8723;51.502;6.918;2022-11-15T02:36:02;6.07;;;5.47;;
17214;SDS011;8723;51.502;6.918;2022-11-15T02:38:34;4.80;;;4.40;;
17214;SDS011;8723;51.502;6.918;2022-11-15T02:41:04;4.97;;;4.57;;
17214;SDS011;8723;51.502;6.918;2022-11-15T02:43:35;4.70;;;4.30;;
17214;SDS011;8723;51.502;6.918;2022-11-15T02:46:22;5.05;;;4.40;;
17214;SDS011;8723;51.502;6.918;2022-11-15T02:49:11;5.40;;;4.90;;
17214;SDS011;8723;51.502;6.918;2022-11-15T02:51:38;4.17;;;3.87;;
17214;SDS011;8723;51.502;6.918;2022-11-15T02:54:06;5.85;;;4.93;;
17214;SDS011;8723;51.502;6.918;2022-11-15T02:56:33;5.28;;;4.72;;
17214;SDS011;8723;51.502;6.918;2022-11-15T02:59:04;6.18;;;5.57;;
17214;SDS011;8723;51.502;6.918;2022-11-15T03:01:41;4.63;;;4.22;;
17214;SDS011;8723;51.502;6.918;2022-11-15T03:04:16;4.80;;;4.43;;
17214;SDS011;8723;51.502;6.918;2022-11-15T03:06:47;6.20;;;5.15;;
17214;SDS011;8723;51.502;6.918;2022-11-15T03:09:18;4.67;;;4.27;;
17214;SDS011;8723;51.502;6.918;2022-11-15T03:11:49;5.35;;;4.85;;
17214;SDS011;8723;51.502;6.918;2022-11-15T03:14:19;4.63;;;4.22;;
17214;SDS011;8723;51.502;6.918;2022-11-15T03:16:49;5.50;;;5.03;;
17214;SDS011;8723;51.502;6.918;2022-11-15T03:19:19;5.07;;;4.63;;
17214;SDS011;8723;51.502;6.918;2022-11-15T03:21:49;6.53;;;5.93;;
17214;SDS011;8723;51.502;6.918;2022-11-15T03:24:17;5.72;;;5.13;;
17214;SDS011;8723;51.502;6.918;2022-11-15T03:26:46;6.53;;;5.90;;
17214;SDS011;8723;51.502;6.918;2022-11-15T03:29:15;6.47;;;5.88;;
17214;SDS011;8723;51.502;6.918;2022-11-15T03:31:44;7.50;;;6.80;;
17214;SDS011;8723;51.502;6.918;2022-11-15T03:34:19;7.05;;;6.30;;
17214;SDS011;8723;51.502;6.918;2022-11-15T03:36:47;6.28;;;5.68;;
17214;SDS011;8723;51.502;6.918;2022-11-15T03:39:14;6.68;;;5.78;;
17214;SDS011;8723;51.502;6.918;2022-11-15T03:41:43;4.78;;;4.38;;
17214;SDS011;8723;51.502;6.918;2022-11-15T03:44:15;7.68;;;6.82;;
17214;SDS011;8723;51.502;6.918;2022-11-15T03:46:47;5.17;;;4.77;;
17214;SDS011;8723;51.502;6.918;2022-11-15T03:49:15;6.75;;;6.05;;
17214;SDS011;8723;51.502;6.918;2022-11-15T03:51:45;6.90;;;6.20;;
17214;SDS011;8723;51.502;6.918;2022-11-15T03:54:12;5.80;;;5.32;;
17214;SDS011;8723;51.502;6.918;2022-11-15T03:56:40;5.60;;;5.07;;
17214;SDS011;8723;51.502;6.918;2022-11-15T03:59:07;5.53;;;5.07;;
17214;SDS011;8723;51.502;6.918;2022-11-15T04:01:34;5.78;;;5.28;;
17214;SDS011;8723;51.502;6.918;2022-11-15T04:04:01;7.07;;;6.38;;
17214;SDS011;8723;51.502;6.918;2022-11-15T04:06:28;7.97;;;6.43;;
17214;SDS011;8723;51.502;6.918;2022-11-15T04:08:56;5.13;;;4.68;;
17214;SDS011;8723;51.502;6.918;2022-11-15T04:11:24;5.10;;;4.57;;
17214;SDS011;8723;51.502;6.918;2022-11-15T04:13:51;4.50;;;4.10;;
17214;SDS011;8723;51.502;6.918;2022-11-15T04:16:18;5.45;;;4.85;;
17214;SDS011;8723;51.502;6.918;2022-11-15T04:18:45;5.53;;;5.05;;
17214;SDS011;8723;51.502;6.918;2022-11-15T04:21:32;5.75;;;5.25;;
17214;SDS011;8723;51.502;6.918;2022-11-15T04:24:18;5.20;;;4.70;;
17214;SDS011;8723;51.502;6.918;2022-11-15T04:26:45;6.13;;;5.45;;
17214;SDS011;8723;51.502;6.918;2022-11-15T04:29:12;5.10;;;4.70;;
17214;SDS011;8723;51.502;6.918;2022-11-15T04:31:57;5.13;;;4.70;;
17214;SDS011;8723;51.502;6.918;2022-11-15T04:34:24;6.10;;;5.32;;
17214;SDS011;8723;51.502;6.918;2022-11-15T04:36:51;5.00;;;4.60;;
17214;SDS011;8723;51.502;6.918;2022-11-15T04:39:37;5.07;;;4.68;;
17214;SDS011;8723;51.502;6.918;2022-11-15T04:42:04;4.90;;;4.50;;
17214;SDS011;8723;51.502;6.918;2022-11-15T04:44:32;5.07;;;4.57;;
17214;SDS011;8723;51.502;6.918;2022-11-15T04:46:59;5.00;;;4.40;;
17214;SDS011;8723;51.502;6.918;2022-11-15T04:49:26;5.63;;;5.13;;
17214;SDS011;8723;51.502;6.918;2022-11-15T04:51:53;5.47;;;4.90;;
17214;SDS011;8723;51.502;6.918;2022-11-15T04:54:20;5.27;;;4.77;;
17214;SDS011;8723;51.502;6.918;2022-11-15T04:56:48;5.50;;;5.00;;
17214;SDS011;8723;51.502;6.918;2022-11-15T04:59:15;4.90;;;4.50;;
17214;SDS011;8723;51.502;6.918;2022-11-15T05:01:43;5.30;;;4.80;;
17214;SDS011;8723;51.502;6.918;2022-11-15T05:04:10;5.07;;;4.67;;
17214;SDS011;8723;51.502;6.918;2022-11-15T05:06:46;5.05;;;4.63;;
17214;SDS011;8723;51.502;6.918;2022-11-15T05:09:13;4.60;;;4.20;;
17214;SDS011;8723;51.502;6.918;2022-11-15T05:11:40;5.38;;;4.93;;
17214;SDS011;8723;51.502;6.918;2022-11-15T05:14:09;5.53;;;5.03;;
17214;SDS011;8723;51.502;6.918;2022-11-15T05:16:36;5.65;;;5.05;;
17214;SDS011;8723;51.502;6.918;2022-11-15T05:19:03;5.40;;;4.90;;
17214;SDS011;8723;51.502;6.918;2022-11-15T05:21:33;4.80;;;4.40;;
17214;SDS011;8723;51.502;6.918;2022-11-15T05:24:00;4.65;;;4.30;;
17214;SDS011;8723;51.502;6.918;2022-11-15T05:26:27;4.78;;;4.40;;
17214;SDS011;8723;51.502;6.918;2022-11-15T05:28:55;4.65;;;4.25;;
17214;SDS011;8723;51.502;6.918;2022-11-15T05:31:24;5.20;;;4.70;;
17214;SDS011;8723;51.502;6.918;2022-11-15T05:33:52;5.07;;;4.60;;
17214;SDS011;8723;51.502;6.918;2022-11-15T05:36:21;5.40;;;4.90;;
17214;SDS011;8723;51.502;6.918;2022-11-15T05:38:51;5.93;;;5.10;;
17214;SDS011;8723;51.502;6.918;2022-11-15T05:41:20;5.50;;;5.00;;
17214;SDS011;8723;51.502;6.918;2022-11-15T05:43:49;5.10;;;4.70;;
17214;SDS011;8723;51.502;6.918;2022-11-15T05:46:16;4.75;;;4.35;;
17214;SDS011;8723;51.502;6.918;2022-11-15T05:48:46;6.13;;;5.55;;
17214;SDS011;8723;51.502;6.918;2022-11-15T05:51:14;6.20;;;5.60;;
17214;SDS011;8723;51.502;6.918;2022-11-15T05:53:42;5.00;;;4.60;;
17214;SDS011;8723;51.502;6.918;2022-11-15T05:56:10;5.65;;;5.22;;
17214;SDS011;8723;51.502;6.918;2022-11-15T05:58:37;5.57;;;5.07;;
17214;SDS011;8723;51.502;6.918;2022-11-15T06:01:04;5.97;;;5.50;;
17214;SDS011;8723;51.502;6.918;2022-11-15T06:03:34;6.72;;;6.22;;
17214;SDS011;8723;51.502;6.918;2022-11-15T06:06:03;6.32;;;5.72;;
17214;SDS011;8723;51.502;6.918;2022-11-15T06:08:30;5.25;;;4.78;;
17214;SDS011;8723;51.502;6.918;2022-11-15T06:11:02;5.53;;;5.03;;
17214;SDS011;8723;51.502;6.918;2022-11-15T06:13:29;5.70;;;5.28;;
17214;SDS011;8723;51.502;6.918;2022-11-15T06:15:56;7.25;;;6.65;;
17214;SDS011;8723;51.502;6.918;2022-11-15T06:18:24;6.75;;;6.10;;
17214;SDS011;8723;51.502;6.918;2022-11-15T06:20:51;5.95;;;5.45;;
17214;SDS011;8723;51.502;6.918;2022-11-15T06:23:19;5.30;;;4.90;;
17214;SDS011;8723;51.502;6.918;2022-11-15T06:25:46;6.60;;;6.00;;
17214;SDS011;8723;51.502;6.918;2022-11-15T06:28:13;5.88;;;5.28;;
17214;SDS011;8723;51.502;6.918;2022-11-15T06:30:40;6.40;;;5.90;;
17214;SDS011;8723;51.502;6.918;2022-11-15T06:33:07;6.00;;;5.57;;
17214;SDS011;8723;51.502;6.918;2022-11-15T06:35:35;6.85;;;5.95;;
17214;SDS011;8723;51.502;6.918;2022-11-15T06:38:03;5.83;;;5.33;;
17214;SDS011;8723;51.502;6.918;2022-11-15T06:40:33;6.13;;;5.63;;
17214;SDS011;8723;51.502;6.918;2022-11-15T06:43:01;5.75;;;5.15;;
17214;SDS011;8723;51.502;6.918;2022-11-15T06:45:28;5.70;;;5.30;;
17214;SDS011;8723;51.502;6.918;2022-11-15T06:47:55;5.88;;;5.38;;
17214;SDS011;8723;51.502;6.918;2022-11-15T06:50:23;5.88;;;5.40;;
17214;SDS011;8723;51.502;6.918;2022-11-15T06:52:50;5.32;;;4.93;;
17214;SDS011;8723;51.502;6.918;2022-11-15T06:55:17;5.10;;;4.70;;
17214;SDS011;8723;51.502;6.918;2022-11-15T06:57:49;5.32;;;4.82;;
17214;SDS011;8723;51.502;6.918;2022-11-15T07:00:17;4.70;;;4.30;;
17214;SDS011;8723;51.502;6.918;2022-11-15T07:02:45;4.70;;;4.30;;
17214;SDS011;8723;51.502;6.918;2022-11-15T07:05:12;4.60;;;4.20;;
17214;SDS011;8723;51.502;6.918;2022-11-15T07:07:40;3.88;;;3.58;;
17214;SDS011;8723;51.502;6.918;2022-11-15T07:10:07;4.30;;;3.90;;
17214;SDS011;8723;51.502;6.918;2022-11-15T07:12:35;4.20;;;3.90;;
17214;SDS011;8723;51.502;6.918;2022-11-15T07:15:04;3.97;;;3.65;;
17214;SDS011;8723;51.502;6.918;2022-11-15T07:17:31;4.18;;;3.88;;
17214;SDS011;8723;51.502;6.918;2022-11-15T07:19:58;4.40;;;4.05;;
17214;SDS011;8723;51.502;6.918;2022-11-15T07:22:25;4.15;;;3.85;;
17214;SDS011;8723;51.502;6.918;2022-11-15T07:24:52;3.92;;;3.63;;
17214;SDS011;8723;51.502;6.918;2022-11-15T07:27:19;4.40;;;4.00;;
17214;SDS011;8723;51.502;6.918;2022-11-15T07:29:47;3.60;;;3.30;;
17214;SDS011;8723;51.502;6.918;2022-11-15T07:32:15;3.45;;;3.25;;
17214;SDS011;8723;51.502;6.918;2022-11-15T07:34:42;4.03;;;3.60;;
17214;SDS011;8723;51.502;6.918;2022-11-15T07:37:10;3.55;;;3.25;;
17214;SDS011;8723;51.502;6.918;2022-11-15T07:39:38;3.60;;;3.30;;
17214;SDS011;8723;51.502;6.918;2022-11-15T07:42:05;3.33;;;3.03;;
17214;SDS011;8723;51.502;6.918;2022-11-15T07:44:50;3.53;;;3.22;;
17214;SDS011;8723;51.502;6.918;2022-11-15T07:47:18;3.97;;;2.80;;
17214;SDS011;8723;51.502;6.918;2022-11-15T07:49:45;3.13;;;2.83;;
17214;SDS011;8723;51.502;6.918;2022-11-15T07:52:12;3.22;;;3.00;;
17214;SDS011;8723;51.502;6.918;2022-11-15T07:54:40;3.28;;;3.00;;
17214;SDS011;8723;51.502;6.918;2022-11-15T07:57:07;3.00;;;2.80;;
17214;SDS011;8723;51.502;6.918;2022-11-15T07:59:35;3.08;;;2.78;;
17214;SDS011;8723;51.502;6.918;2022-11-15T08:02:02;2.67;;;2.47;;
17214;SDS011;8723;51.502;6.918;2022-11-15T08:04:30;2.78;;;2.58;;
17214;SDS011;8723;51.502;6.918;2022-11-15T08:06:58;2.67;;;2.47;;
17214;SDS011;8723;51.502;6.918;2022-11-15T08:09:25;2.78;;;2.58;;
17214;SDS011;8723;51.502;6.918;2022-11-15T08:11:52;2.63;;;2.42;;
17214;SDS011;8723;51.502;6.918;2022-11-15T08:14:19;2.90;;;2.70;;
17214;SDS011;8723;51.502;6.918;2022-11-15T08:16:47;2.67;;;2.47;;
17214;SDS011;8723;51.502;6.918;2022-11-15T08:19:14;3.10;;;2.80;;
17214;SDS011;8723;51.502;6.918;2022-11-15T08:21:42;2.70;;;2.50;;
17214;SDS011;8723;51.502;6.918;2022-11-15T08:24:10;2.30;;;2.07;;
17214;SDS011;8723;51.502;6.918;2022-11-15T08:26:37;2.20;;;1.55;;
17214;SDS011;8723;51.502;6.918;2022-11-15T08:29:04;2.83;;;1.90;;
17214;SDS011;8723;51.502;6.918;2022-11-15T08:31:32;4.18;;;2.25;;
17214;SDS011;8723;51.502;6.918;2022-11-15T08:34:00;2.42;;;1.88;;
17214;SDS011;8723;51.502;6.918;2022-11-15T08:36:27;1.90;;;1.80;;
17214;SDS011;8723;51.502;6.918;2022-11-15T08:38:56;1.70;;;1.60;;
17214;SDS011;8723;51.502;6.918;2022-11-15T08:41:24;2.08;;;1.90;;
17214;SDS011;8723;51.502;6.918;2022-11-15T08:43:52;2.20;;;1.65;;
17214;SDS011;8723;51.502;6.918;2022-11-15T08:46:19;1.70;;;1.60;;
17214;SDS011;8723;51.502;6.918;2022-11-15T08:48:46;2.50;;;1.77;;
17214;SDS011;8723;51.502;6.918;2022-11-15T08:51:13;2.58;;;1.55;;
17214;SDS011;8723;51.502;6.918;2022-11-15T08:53:41;1.70;;;1.60;;
17214;SDS011;8723;51.502;6.918;2022-11-15T08:56:09;1.73;;;1.63;;
17214;SDS011;8723;51.502;6.918;2022-11-15T08:58:37;3.33;;;1.70;;
17214;SDS011;8723;51.502;6.918;2022-11-15T09:01:04;2.95;;;1.83;;
17214;SDS011;8723;51.502;6.918;2022-11-15T09:03:31;1.83;;;1.67;;
17214;SDS011;8723;51.502;6.918;2022-11-15T09:05:59;2.40;;;1.80;;
17214;SDS011;8723;51.502;6.918;2022-11-15T09:08:28;3.13;;;2.00;;
17214;SDS011;8723;51.502;6.918;2022-11-15T09:10:56;2.10;;;1.80;;
17214;SDS011;8723;51.502;6.918;2022-11-15T09:13:24;1.80;;;1.70;;
17214;SDS011;8723;51.502;6.918;2022-11-15T09:15:52;2.28;;;2.08;;
17214;SDS011;8723;51.502;6.918;2022-11-15T09:18:19;2.30;;;2.10;;
17214;SDS011;8723;51.502;6.918;2022-11-15T09:20:47;2.30;;;2.10;;
17214;SDS011;8723;51.502;6.918;2022-11-15T09:23:14;2.40;;;2.20;;
17214;SDS011;8723;51.502;6.918;2022-11-15T09:25:41;2.40;;;2.20;;
17214;SDS011;8723;51.502;6.918;2022-11-15T09:28:09;2.28;;;2.08;;
17214;SDS011;8723;51.502;6.918;2022-11-15T09:30:37;2.70;;;2.50;;
17214;SDS011;8723;51.502;6.918;2022-11-15T09:33:07;3.13;;;2.25;;
17214;SDS011;8723;51.502;6.918;2022-11-15T09:35:34;2.60;;;2.40;;
17214;SDS011;8723;51.502;6.918;2022-11-15T09:38:04;3.38;;;2.75;;
17214;SDS011;8723;51.502;6.918;2022-11-15T09:40:32;3.13;;;2.93;;
17214;SDS011;8723;51.502;6.918;2022-11-15T09:43:05;3.70;;;3.40;;
17214;SDS011;8723;51.502;6.918;2022-11-15T09:45:37;2.90;;;2.60;;
17214;SDS011;8723;51.502;6.918;2022-11-15T09:48:15;2.25;;;2.05;;
17214;SDS011;8723;51.502;6.918;2022-11-15T09:50:45;2.35;;;2.08;;
17214;SDS011;8723;51.502;6.918;2022-11-15T09:53:17;2.70;;;2.08;;
17214;SDS011;8723;51.502;6.918;2022-11-15T09:55:47;2.50;;;2.30;;
17214;SDS011;8723;51.502;6.918;2022-11-15T09:58:19;2.67;;;2.40;;
17214;SDS011;8723;51.502;6.918;2022-11-15T10:00:49;2.20;;;2.10;;
17214;SDS011;8723;51.502;6.918;2022-11-15T10:03:23;2.50;;;2.20;;
17214;SDS011;8723;51.502;6.918;2022-11-15T10:05:52;2.93;;;2.03;;
17214;SDS011;8723;51.502;6.918;2022-11-15T10:08:24;1.98;;;1.77;;
17214;SDS011;8723;51.502;6.918;2022-11-15T10:10:53;2.67;;;2.15;;
17214;SDS011;8723;51.502;6.918;2022-11-15T10:13:22;2.42;;;1.88;;
17214;SDS011;8723;51.502;6.918;2022-11-15T10:15:50;4.50;;;2.05;;
17214;SDS011;8723;51.502;6.918;2022-11-15T10:18:18;1.90;;;1.80;;
17214;SDS011;8723;51.502;6.918;2022-11-15T10:20:48;4.15;;;1.73;;
17214;SDS011;8723;51.502;6.918;2022-11-15T10:23:16;3.40;;;1.85;;
17214;SDS011;8723;51.502;6.918;2022-11-15T10:25:44;2.33;;;2.00;;
17214;SDS011;8723;51.502;6.918;2022-11-15T10:28:13;2.83;;;1.70;;
17214;SDS011;8723;51.502;6.918;2022-11-15T10:30:41;2.10;;;1.88;;
17214;SDS011;8723;51.502;6.918;2022-11-15T10:35:39;2.05;;;1.58;;
17214;SDS011;8723;51.502;6.918;2022-11-15T10:38:09;2.10;;;1.80;;
17214;SDS011;8723;51.502;6.918;2022-11-15T10:40:37;1.85;;;1.63;;
17214;SDS011;8723;51.502;6.918;2022-11-15T10:43:05;2.78;;;1.73;;
17214;SDS011;8723;51.502;6.918;2022-11-15T10:45:38;2.78;;;1.98;;
17214;SDS011;8723;51.502;6.918;2022-11-15T10:48:22;2.10;;;1.73;;
17214;SDS011;8723;51.502;6.918;2022-11-15T10:50:50;2.85;;;1.63;;
17214;SDS011;8723;51.502;6.918;2022-11-15T10:53:21;2.80;;;1.60;;
17214;SDS011;8723;51.502;6.918;2022-11-15T10:55:50;2.88;;;1.77;;
17214;SDS011;8723;51.502;6.918;2022-11-15T10:58:22;1.77;;;1.58;;
17214;SDS011;8723;51.502;6.918;2022-11-15T11:00:54;2.67;;;1.63;;
17214;SDS011;8723;51.502;6.918;2022-11-15T11:03:26;2.53;;;1.60;;
17214;SDS011;8723;51.502;6.918;2022-11-15T11:06:03;2.47;;;1.70;;
17214;SDS011;8723;51.502;6.918;2022-11-15T11:08:32;2.75;;;1.50;;
17214;SDS011;8723;51.502;6.918;2022-11-15T11:11:02;2.20;;;1.60;;
17214;SDS011;8723;51.502;6.918;2022-11-15T11:13:30;2.70;;;1.58;;
17214;SDS011;8723;51.502;6.918;2022-11-15T11:15:59;1.95;;;1.42;;
17214;SDS011;8723;51.502;6.918;2022-11-15T11:18:33;1.30;;;1.10;;
17214;SDS011;8723;51.502;6.918;2022-11-15T11:21:02;2.85;;;1.20;;
17214;SDS011;8723;51.502;6.918;2022-11-15T11:23:38;2.25;;;1.15;;
17214;SDS011;8723;51.502;6.918;2022-11-15T11:26:12;2.75;;;1.17;;
17214;SDS011;8723;51.502;6.918;2022-11-15T11:28:42;1.98;;;1.35;;
17214;SDS011;8723;51.502;6.918;2022-11-15T11:31:14;1.38;;;1.02;;
17214;SDS011;8723;51.502;6.918;2022-11-15T11:33:47;1.70;;;1.10;;
17214;SDS011;8723;51.502;6.918;2022-11-15T11:36:18;3.00;;;1.50;;
17214;SDS011;8723;51.502;6.918;2022-11-15T11:38:53;1.87;;;1.37;;
17214;SDS011;8723;51.502;6.918;2022-11-15T11:41:27;2.20;;;1.23;;
17214;SDS011;8723;51.502;6.918;2022-11-15T11:44:00;1.40;;;1.10;;
17214;SDS011;8723;51.502;6.918;2022-11-15T11:46:44;2.78;;;1.50;;
17214;SDS011;8723;51.502;6.918;2022-11-15T11:49:15;2.40;;;1.13;;
17214;SDS011;8723;51.502;6.918;2022-11-15T11:51:45;2.20;;;1.10;;
17214;SDS011;8723;51.502;6.918;2022-11-15T11:54:17;1.20;;;1.10;;
17214;SDS011;8723;51.502;6.918;2022-11-15T11:56:46;1.30;;;1.20;;
17214;SDS011;8723;51.502;6.918;2022-11-15T11:59:16;1.35;;;1.15;;
17214;SDS011;8723;51.502;6.918;2022-11-15T12:01:44;2.47;;;0.90;;
17214;SDS011;8723;51.502;6.918;2022-11-15T12:04:13;3.17;;;1.10;;
17214;SDS011;8723;51.502;6.918;2022-11-15T12:06:42;1.73;;;0.90;;
17214;SDS011;8723;51.502;6.918;2022-11-15T12:09:13;1.95;;;0.90;;
17214;SDS011;8723;51.502;6.918;2022-11-15T12:11:47;1.10;;;0.95;;
17214;SDS011;8723;51.502;6.918;2022-11-15T12:14:19;1.63;;;1.13;;
17214;SDS011;8723;51.502;6.918;2022-11-15T12:16:49;2.55;;;1.08;;
17214;SDS011;8723;51.502;6.918;2022-11-15T12:19:16;1.67;;;1.08;;
17214;SDS011;8723;51.502;6.918;2022-11-15T12:21:44;2.30;;;1.00;;
17214;SDS011;8723;51.502;6.918;2022-11-15T12:24:14;1.63;;;1.00;;
17214;SDS011;8723;51.502;6.918;2022-11-15T12:26:46;2.10;;;1.05;;
17214;SDS011;8723;51.502;6.918;2022-11-15T12:29:15;2.05;;;1.08;;
17214;SDS011;8723;51.502;6.918;2022-11-15T12:31:44;1.90;;;0.80;;
17214;SDS011;8723;51.502;6.918;2022-11-15T12:34:13;2.13;;;1.02;;
17214;SDS011;8723;51.502;6.918;2022-11-15T12:36:43;2.13;;;1.17;;
17214;SDS011;8723;51.502;6.918;2022-11-15T12:39:10;1.02;;;0.77;;
17214;SDS011;8723;51.502;6.918;2022-11-15T12:41:38;2.83;;;1.25;;
17214;SDS011;8723;51.502;6.918;2022-11-15T12:44:10;1.33;;;0.90;;
17214;SDS011;8723;51.502;6.918;2022-11-15T12:47:00;1.83;;;0.75;;
17214;SDS011;8723;51.502;6.918;2022-11-15T12:49:44;2.10;;;1.00;;
17214;SDS011;8723;51.502;6.918;2022-11-15T12:52:12;1.80;;;1.00;;
17214;SDS011;8723;51.502;6.918;2022-11-15T12:54:50;1.63;;;1.00;;
17214;SDS011;8723;51.502;6.918;2022-11-15T12:57:36;1.15;;;1.00;;
17214;SDS011;8723;51.502;6.918;2022-11-15T13:02:48;2.40;;;1.20;;
17214;SDS011;8723;51.502;6.918;2022-11-15T13:08:09;1.60;;;0.90;;
17214;SDS011;8723;51.502;6.918;2022-11-15T13:10:56;2.72;;;1.08;;
17214;SDS011;8723;51.502;6.918;2022-11-15T13:16:06;2.33;;;1.20;;
17214;SDS011;8723;51.502;6.918;2022-11-15T13:18:36;1.33;;;1.08;;
17214;SDS011;8723;51.502;6.918;2022-11-15T13:21:05;1.67;;;1.08;;
17214;SDS011;8723;51.502;6.918;2022-11-15T13:23:53;2.08;;;1.10;;
17214;SDS011;8723;51.502;6.918;2022-11-15T13:26:21;1.75;;;1.30;;
17214;SDS011;8723;51.502;6.918;2022-11-15T13:28:48;2.65;;;1.35;;
17214;SDS011;8723;51.502;6.918;2022-11-15T13:31:24;2.53;;;1.27;;
17214;SDS011;8723;51.502;6.918;2022-11-15T13:33:54;2.23;;;1.10;;
17214;SDS011;8723;51.502;6.918;2022-11-15T13:36:22;2.08;;;1.20;;
17214;SDS011;8723;51.502;6.918;2022-11-15T13:38:54;3.00;;;1.02;;
17214;SDS011;8723;51.502;6.918;2022-11-15T13:41:23;1.27;;;0.90;;
17214;SDS011;8723;51.502;6.918;2022-11-15T13:43:51;1.40;;;1.17;;
17214;SDS011;8723;51.502;6.918;2022-11-15T13:46:19;2.88;;;1.15;;
17214;SDS011;8723;51.502;6.918;2022-11-15T13:48:47;2.00;;;0.97;;
17214;SDS011;8723;51.502;6.918;2022-11-15T13:51:19;1.52;;;0.90;;
17214;SDS011;8723;51.502;6.918;2022-11-15T13:53:49;1.90;;;1.10;;
17214;SDS011;8723;51.502;6.918;2022-11-15T13:56:17;1.80;;;1.17;;
17214;SDS011;8723;51.502;6.918;2022-11-15T13:58:45;2.67;;;1.20;;
17214;SDS011;8723;51.502;6.918;2022-11-15T14:01:14;1.73;;;1.20;;
17214;SDS011;8723;51.502;6.918;2022-11-15T14:03:46;2.17;;;1.30;;
17214;SDS011;8723;51.502;6.918;2022-11-15T14:06:15;2.08;;;1.00;;
17214;SDS011;8723;51.502;6.918;2022-11-15T14:08:58;1.95;;;1.10;;
17214;SDS011;8723;51.502;6.918;2022-11-15T14:11:26;4.15;;;1.10;;
17214;SDS011;8723;51.502;6.918;2022-11-15T14:14:09;4.35;;;1.20;;
17214;SDS011;8723;51.502;6.918;2022-11-15T14:16:38;2.65;;;0.98;;
17214;SDS011;8723;51.502;6.918;2022-11-15T14:19:06;2.47;;;1.00;;
17214;SDS011;8723;51.502;6.918;2022-11-15T14:21:33;1.52;;;0.90;;
17214;SDS011;8723;51.502;6.918;2022-11-15T14:24:18;2.85;;;1.20;;
17214;SDS011;8723;51.502;6.918;2022-11-15T14:26:45;2.45;;;1.00;;
17214;SDS011;8723;51.502;6.918;2022-11-15T14:29:23;1.10;;;0.80;;
17214;SDS011;8723;51.502;6.918;2022-11-15T14:31:50;2.03;;;1.10;;
17214;SDS011;8723;51.502;6.918;2022-11-15T14:34:17;1.63;;;1.20;;
17214;SDS011;8723;51.502;6.918;2022-11-15T14:36:46;1.77;;;1.15;;
17214;SDS011;8723;51.502;6.918;2022-11-15T14:39:13;2.15;;;1.00;;
17214;SDS011;8723;51.502;6.918;2022-11-15T14:41:43;2.40;;;1.20;;
17214;SDS011;8723;51.502;6.918;2022-11-15T14:44:10;2.30;;;1.30;;
17214;SDS011;8723;51.502;6.918;2022-11-15T14:46:43;1.38;;;0.93;;
17214;SDS011;8723;51.502;6.918;2022-11-15T14:49:10;2.80;;;1.10;;
17214;SDS011;8723;51.502;6.918;2022-11-15T14:51:38;2.70;;;1.37;;
17214;SDS011;8723;51.502;6.918;2022-11-15T14:54:05;2.85;;;1.40;;
17214;SDS011;8723;51.502;6.918;2022-11-15T14:56:32;2.30;;;1.30;;
17214;SDS011;8723;51.502;6.918;2022-11-15T14:59:00;5.15;;;1.40;;
17214;SDS011;8723;51.502;6.918;2022-11-15T15:01:27;3.50;;;1.33;;
17214;SDS011;8723;51.502;6.918;2022-11-15T15:03:55;2.40;;;1.20;;
17214;SDS011;8723;51.502;6.918;2022-11-15T15:06:23;2.47;;;1.40;;
17214;SDS011;8723;51.502;6.918;2022-11-15T15:08:50;2.13;;;1.50;;
17214;SDS011;8723;51.502;6.918;2022-11-15T15:11:18;3.30;;;1.50;;
17214;SDS011;8723;51.502;6.918;2022-11-15T15:13:46;2.95;;;1.80;;
17214;SDS011;8723;51.502;6.918;2022-11-15T15:16:15;3.23;;;1.67;;
17214;SDS011;8723;51.502;6.918;2022-11-15T15:18:42;2.55;;;1.77;;
17214;SDS011;8723;51.502;6.918;2022-11-15T15:21:14;2.38;;;1.90;;
17214;SDS011;8723;51.502;6.918;2022-11-15T15:23:43;1.55;;;1.42;;
17214;SDS011;8723;51.502;6.918;2022-11-15T15:26:10;2.08;;;1.88;;
17214;SDS011;8723;51.502;6.918;2022-11-15T15:28:37;2.45;;;1.75;;
17214;SDS011;8723;51.502;6.918;2022-11-15T15:31:05;3.42;;;2.13;;
17214;SDS011;8723;51.502;6.918;2022-11-15T15:33:33;2.25;;;1.85;;